sensor_id;sensor_type;location;lat;lon;timestamp;temperature;humidity
66740;DHT22;53653;52.188;8.602;2023-03-19T00:01:25;8.76;97.65
66740;DHT22;53653;52.188;8.602;2023-03-19T00:03:51;8.76;97.61
66740;DHT22;53653;52.188;8.602;2023-03-19T00:06:17;8.81;97.58
66740;DHT22;53653;52.188;8.602;2023-03-19T00:08:43;8.75;97.41
66740;DHT22;53653;52.188;8.602;2023-03-19T00:11:11;8.69;97.44
66740;DHT22;53653;52.188;8.602;2023-03-19T00:13:37;8.58;97.39
66740;DHT22;53653;52.188;8.602;2023-03-19T00:16:03;8.47;97.37
66740;DHT22;53653;52.188;8.602;2023-03-19T00:18:29;8.40;97.56
66740;DHT22;53653;52.188;8.602;2023-03-19T00:20:55;8.33;97.65
66740;DHT22;53653;52.188;8.602;2023-03-19T00:23:21;8.33;97.65
66740;DHT22;53653;52.188;8.602;2023-03-19T00:25:47;8.29;97.58
66740;DHT22;53653;52.188;8.602;2023-03-19T00:28:12;8.24;97.63
66740;DHT22;53653;52.188;8.602;2023-03-19T00:30:38;8.22;97.57
66740;DHT22;53653;52.188;8.602;2023-03-19T00:33:05;8.20;97.61
66740;DHT22;53653;52.188;8.602;2023-03-19T00:35:31;8.19;97.50
66740;DHT22;53653;52.188;8.602;2023-03-19T00:37:56;8.17;97.40
66740;DHT22;53653;52.188;8.602;2023-03-19T00:40:23;8.07;97.20
66740;DHT22;53653;52.188;8.602;2023-03-19T00:42:48;7.97;97.32
66740;DHT22;53653;52.188;8.602;2023-03-19T00:45:14;7.97;97.29
66740;DHT22;53653;52.188;8.602;2023-03-19T00:47:40;7.97;97.20
66740;DHT22;53653;52.188;8.602;2023-03-19T00:50:07;7.95;97.12
66740;DHT22;53653;52.188;8.602;2023-03-19T00:52:35;7.99;97.14
66740;DHT22;53653;52.188;8.602;2023-03-19T00:55:01;7.97;97.04
66740;DHT22;53653;52.188;8.602;2023-03-19T00:57:26;7.96;96.87
66740;DHT22;53653;52.188;8.602;2023-03-19T00:59:52;7.97;96.75
66740;DHT22;53653;52.188;8.602;2023-03-19T01:02:18;8.00;96.83
66740;DHT22;53653;52.188;8.602;2023-03-19T01:04:46;8.02;96.62
66740;DHT22;53653;52.188;8.602;2023-03-19T01:07:12;7.95;96.35
66740;DHT22;53653;52.188;8.602;2023-03-19T01:09:37;7.89;96.38
66740;DHT22;53653;52.188;8.602;2023-03-19T01:12:04;7.76;96.55
66740;DHT22;53653;52.188;8.602;2023-03-19T01:14:31;7.72;97.06
66740;DHT22;53653;52.188;8.602;2023-03-19T01:16:56;7.76;96.95
66740;DHT22;53653;52.188;8.602;2023-03-19T01:19:23;7.72;96.72
66740;DHT22;53653;52.188;8.602;2023-03-19T01:21:48;7.71;96.98
66740;DHT22;53653;52.188;8.602;2023-03-19T01:24:18;7.65;96.97
66740;DHT22;53653;52.188;8.602;2023-03-19T01:26:49;7.59;97.03
66740;DHT22;53653;52.188;8.602;2023-03-19T01:29:25;7.50;97.03
66740;DHT22;53653;52.188;8.602;2023-03-19T01:31:52;7.47;97.40
66740;DHT22;53653;52.188;8.602;2023-03-19T01:34:32;7.54;97.77
66740;DHT22;53653;52.188;8.602;2023-03-19T01:37:07;7.59;97.65
66740;DHT22;53653;52.188;8.602;2023-03-19T01:39:33;7.68;97.61
66740;DHT22;53653;52.188;8.602;2023-03-19T01:42:03;7.72;97.48
66740;DHT22;53653;52.188;8.602;2023-03-19T01:44:43;7.78;97.46
66740;DHT22;53653;52.188;8.602;2023-03-19T01:47:40;7.92;97.45
66740;DHT22;53653;52.188;8.602;2023-03-19T01:50:20;7.96;97.22
66740;DHT22;53653;52.188;8.602;2023-03-19T01:52:53;8.07;97.33
66740;DHT22;53653;52.188;8.602;2023-03-19T01:55:32;8.10;97.29
66740;DHT22;53653;52.188;8.602;2023-03-19T01:58:18;8.09;97.16
66740;DHT22;53653;52.188;8.602;2023-03-19T02:01:11;8.12;96.92
66740;DHT22;53653;52.188;8.602;2023-03-19T02:03:41;8.14;96.94
66740;DHT22;53653;52.188;8.602;2023-03-19T02:06:15;8.19;96.82
66740;DHT22;53653;52.188;8.602;2023-03-19T02:08:42;8.24;96.56
66740;DHT22;53653;52.188;8.602;2023-03-19T02:11:08;8.22;96.48
66740;DHT22;53653;52.188;8.602;2023-03-19T02:13:34;8.20;96.27
66740;DHT22;53653;52.188;8.602;2023-03-19T02:16:01;8.20;96.33
66740;DHT22;53653;52.188;8.602;2023-03-19T02:18:28;8.14;96.37
66740;DHT22;53653;52.188;8.602;2023-03-19T02:26:28;8.06;96.32
66740;DHT22;53653;52.188;8.602;2023-03-19T02:29:00;8.07;96.32
66740;DHT22;53653;52.188;8.602;2023-03-19T02:31:30;8.14;96.38
66740;DHT22;53653;52.188;8.602;2023-03-19T02:33:57;8.19;96.27
66740;DHT22;53653;52.188;8.602;2023-03-19T02:36:26;8.24;96.06
66740;DHT22;53653;52.188;8.602;2023-03-19T02:38:53;8.27;95.77
66740;DHT22;53653;52.188;8.602;2023-03-19T02:41:20;8.20;95.40
66740;DHT22;53653;52.188;8.602;2023-03-19T02:43:46;8.16;95.41
66740;DHT22;53653;52.188;8.602;2023-03-19T02:46:12;8.13;95.14
66740;DHT22;53653;52.188;8.602;2023-03-19T02:48:39;8.09;95.12
66740;DHT22;53653;52.188;8.602;2023-03-19T02:51:06;8.02;95.40
66740;DHT22;53653;52.188;8.602;2023-03-19T02:53:31;8.09;95.30
66740;DHT22;53653;52.188;8.602;2023-03-19T02:55:59;8.09;95.12
66740;DHT22;53653;52.188;8.602;2023-03-19T02:58:24;7.99;95.14
66740;DHT22;53653;52.188;8.602;2023-03-19T03:00:50;7.83;95.25
66740;DHT22;53653;52.188;8.602;2023-03-19T03:03:17;7.76;95.30
66740;DHT22;53653;52.188;8.602;2023-03-19T03:05:43;7.69;95.64
66740;DHT22;53653;52.188;8.602;2023-03-19T03:08:08;7.72;95.47
66740;DHT22;53653;52.188;8.602;2023-03-19T03:10:35;7.64;95.86
66740;DHT22;53653;52.188;8.602;2023-03-19T03:13:02;7.65;95.73
66740;DHT22;53653;52.188;8.602;2023-03-19T03:15:28;7.57;96.00
66740;DHT22;53653;52.188;8.602;2023-03-19T03:17:55;7.62;96.26
66740;DHT22;53653;52.188;8.602;2023-03-19T03:20:21;7.64;96.25
66740;DHT22;53653;52.188;8.602;2023-03-19T03:22:47;7.66;96.25
66740;DHT22;53653;52.188;8.602;2023-03-19T03:25:13;7.66;96.48
66740;DHT22;53653;52.188;8.602;2023-03-19T03:27:39;7.64;96.41
66740;DHT22;53653;52.188;8.602;2023-03-19T03:30:07;7.62;96.40
66740;DHT22;53653;52.188;8.602;2023-03-19T03:32:35;7.59;96.48
66740;DHT22;53653;52.188;8.602;2023-03-19T03:35:01;7.51;96.81
66740;DHT22;53653;52.188;8.602;2023-03-19T03:37:28;7.48;97.13
66740;DHT22;53653;52.188;8.602;2023-03-19T03:39:54;7.48;97.37
66740;DHT22;53653;52.188;8.602;2023-03-19T03:42:20;7.47;97.43
66740;DHT22;53653;52.188;8.602;2023-03-19T03:44:46;7.47;97.51
66740;DHT22;53653;52.188;8.602;2023-03-19T03:47:12;7.48;97.64
66740;DHT22;53653;52.188;8.602;2023-03-19T03:49:38;7.51;97.61
66740;DHT22;53653;52.188;8.602;2023-03-19T03:52:03;7.54;97.51
66740;DHT22;53653;52.188;8.602;2023-03-19T03:54:29;7.59;97.34
66740;DHT22;53653;52.188;8.602;2023-03-19T03:56:55;7.61;97.13
66740;DHT22;53653;52.188;8.602;2023-03-19T03:59:21;7.65;97.07
66740;DHT22;53653;52.188;8.602;2023-03-19T04:01:47;7.68;97.05
66740;DHT22;53653;52.188;8.602;2023-03-19T04:04:12;7.68;97.13
66740;DHT22;53653;52.188;8.602;2023-03-19T04:06:39;7.74;97.04
66740;DHT22;53653;52.188;8.602;2023-03-19T04:09:18;7.74;96.92
66740;DHT22;53653;52.188;8.602;2023-03-19T04:11:44;7.75;96.73
66740;DHT22;53653;52.188;8.602;2023-03-19T04:14:10;7.71;96.64
66740;DHT22;53653;52.188;8.602;2023-03-19T04:16:37;7.69;96.48
66740;DHT22;53653;52.188;8.602;2023-03-19T04:19:03;7.71;96.47
66740;DHT22;53653;52.188;8.602;2023-03-19T04:21:29;7.64;96.42
66740;DHT22;53653;52.188;8.602;2023-03-19T04:24:01;7.65;96.30
66740;DHT22;53653;52.188;8.602;2023-03-19T04:26:26;7.62;96.22
66740;DHT22;53653;52.188;8.602;2023-03-19T04:28:52;7.61;96.12
66740;DHT22;53653;52.188;8.602;2023-03-19T04:31:18;7.55;96.29
66740;DHT22;53653;52.188;8.602;2023-03-19T04:33:44;7.44;96.54
66740;DHT22;53653;52.188;8.602;2023-03-19T04:36:10;7.41;96.52
66740;DHT22;53653;52.188;8.602;2023-03-19T04:38:36;7.38;96.54
66740;DHT22;53653;52.188;8.602;2023-03-19T04:41:03;7.38;96.43
66740;DHT22;53653;52.188;8.602;2023-03-19T04:43:31;7.37;96.28
66740;DHT22;53653;52.188;8.602;2023-03-19T04:45:57;7.30;96.13
66740;DHT22;53653;52.188;8.602;2023-03-19T04:48:24;7.26;96.32
66740;DHT22;53653;52.188;8.602;2023-03-19T04:50:51;7.27;96.40
66740;DHT22;53653;52.188;8.602;2023-03-19T04:53:19;7.26;96.31
66740;DHT22;53653;52.188;8.602;2023-03-19T04:55:46;7.17;96.26
66740;DHT22;53653;52.188;8.602;2023-03-19T04:58:15;7.28;96.40
66740;DHT22;53653;52.188;8.602;2023-03-19T05:00:42;7.32;96.24
66740;DHT22;53653;52.188;8.602;2023-03-19T05:03:15;7.35;96.12
66740;DHT22;53653;52.188;8.602;2023-03-19T05:05:42;7.31;96.16
66740;DHT22;53653;52.188;8.602;2023-03-19T05:08:08;7.30;96.28
66740;DHT22;53653;52.188;8.602;2023-03-19T05:10:36;7.26;96.30
66740;DHT22;53653;52.188;8.602;2023-03-19T05:13:03;7.26;96.46
66740;DHT22;53653;52.188;8.602;2023-03-19T05:15:29;7.24;96.54
66740;DHT22;53653;52.188;8.602;2023-03-19T05:18:00;7.26;96.44
66740;DHT22;53653;52.188;8.602;2023-03-19T05:20:37;7.27;96.35
66740;DHT22;53653;52.188;8.602;2023-03-19T05:23:07;7.21;96.23
66740;DHT22;53653;52.188;8.602;2023-03-19T05:25:40;7.13;96.45
66740;DHT22;53653;52.188;8.602;2023-03-19T05:28:08;7.04;96.87
66740;DHT22;53653;52.188;8.602;2023-03-19T05:30:34;6.99;97.21
66740;DHT22;53653;52.188;8.602;2023-03-19T05:33:05;6.93;97.54
66740;DHT22;53653;52.188;8.602;2023-03-19T05:35:35;6.92;97.43
66740;DHT22;53653;52.188;8.602;2023-03-19T05:38:10;6.86;97.49
66740;DHT22;53653;52.188;8.602;2023-03-19T05:40:39;6.80;97.60
66740;DHT22;53653;52.188;8.602;2023-03-19T05:43:18;6.76;97.57
66740;DHT22;53653;52.188;8.602;2023-03-19T05:45:49;6.73;97.49
66740;DHT22;53653;52.188;8.602;2023-03-19T05:48:20;6.75;97.38
66740;DHT22;53653;52.188;8.602;2023-03-19T05:50:47;6.71;97.18
66740;DHT22;53653;52.188;8.602;2023-03-19T05:53:20;6.75;97.12
66740;DHT22;53653;52.188;8.602;2023-03-19T05:56:19;6.76;97.03
66740;DHT22;53653;52.188;8.602;2023-03-19T05:58:57;6.76;97.06
66740;DHT22;53653;52.188;8.602;2023-03-19T06:01:28;6.75;96.88
66740;DHT22;53653;52.188;8.602;2023-03-19T06:03:55;6.75;96.82
66740;DHT22;53653;52.188;8.602;2023-03-19T06:06:20;6.75;96.77
66740;DHT22;53653;52.188;8.602;2023-03-19T06:08:50;6.75;96.66
66740;DHT22;53653;52.188;8.602;2023-03-19T06:11:20;6.72;96.49
66740;DHT22;53653;52.188;8.602;2023-03-19T06:13:54;6.68;96.47
66740;DHT22;53653;52.188;8.602;2023-03-19T06:16:20;6.78;96.59
66740;DHT22;53653;52.188;8.602;2023-03-19T06:18:50;7.07;96.54
66740;DHT22;53653;52.188;8.602;2023-03-19T06:21:16;7.31;96.26
66740;DHT22;53653;52.188;8.602;2023-03-19T06:23:42;7.52;95.08
66740;DHT22;53653;52.188;8.602;2023-03-19T06:26:10;7.75;94.39
66740;DHT22;53653;52.188;8.602;2023-03-19T06:28:45;8.07;93.93
66740;DHT22;53653;52.188;8.602;2023-03-19T06:31:12;8.16;93.27
66740;DHT22;53653;52.188;8.602;2023-03-19T06:33:56;8.33;92.77
66740;DHT22;53653;52.188;8.602;2023-03-19T06:36:27;8.41;92.51
66740;DHT22;53653;52.188;8.602;2023-03-19T06:38:54;8.54;92.12
66740;DHT22;53653;52.188;8.602;2023-03-19T06:41:20;8.68;91.88
66740;DHT22;53653;52.188;8.602;2023-03-19T06:43:48;8.95;91.13
66740;DHT22;53653;52.188;8.602;2023-03-19T06:46:13;9.20;90.58
66740;DHT22;53653;52.188;8.602;2023-03-19T06:48:39;9.30;90.49
66740;DHT22;53653;52.188;8.602;2023-03-19T06:51:05;9.60;89.99
66740;DHT22;53653;52.188;8.602;2023-03-19T06:53:32;9.75;89.19
66740;DHT22;53653;52.188;8.602;2023-03-19T06:55:58;10.06;88.10
66740;DHT22;53653;52.188;8.602;2023-03-19T06:58:24;10.40;87.13
66740;DHT22;53653;52.188;8.602;2023-03-19T07:00:50;10.83;85.45
66740;DHT22;53653;52.188;8.602;2023-03-19T07:03:16;11.04;84.81
66740;DHT22;53653;52.188;8.602;2023-03-19T07:05:41;11.14;84.56
66740;DHT22;53653;52.188;8.602;2023-03-19T07:08:07;11.28;84.67
66740;DHT22;53653;52.188;8.602;2023-03-19T07:10:37;11.28;84.14
66740;DHT22;53653;52.188;8.602;2023-03-19T07:13:04;11.56;84.30
66740;DHT22;53653;52.188;8.602;2023-03-19T07:15:30;11.65;82.92
66740;DHT22;53653;52.188;8.602;2023-03-19T07:17:56;11.62;83.40
66740;DHT22;53653;52.188;8.602;2023-03-19T07:20:22;11.22;85.52
66740;DHT22;53653;52.188;8.602;2023-03-19T07:22:51;10.97;85.46
66740;DHT22;53653;52.188;8.602;2023-03-19T07:25:16;10.90;85.68
66740;DHT22;53653;52.188;8.602;2023-03-19T07:27:43;10.87;85.63
66740;DHT22;53653;52.188;8.602;2023-03-19T07:30:09;10.91;86.16
66740;DHT22;53653;52.188;8.602;2023-03-19T07:32:36;10.81;85.82
66740;DHT22;53653;52.188;8.602;2023-03-19T07:35:04;10.76;86.30
66740;DHT22;53653;52.188;8.602;2023-03-19T07:37:30;10.70;86.45
66740;DHT22;53653;52.188;8.602;2023-03-19T07:39:56;10.74;86.83
66740;DHT22;53653;52.188;8.602;2023-03-19T07:42:22;10.81;86.58
66740;DHT22;53653;52.188;8.602;2023-03-19T07:44:48;10.84;86.41
66740;DHT22;53653;52.188;8.602;2023-03-19T07:47:13;11.08;86.23
66740;DHT22;53653;52.188;8.602;2023-03-19T07:49:39;11.15;85.80
66740;DHT22;53653;52.188;8.602;2023-03-19T07:52:05;11.22;85.38
66740;DHT22;53653;52.188;8.602;2023-03-19T07:54:31;11.62;85.42
66740;DHT22;53653;52.188;8.602;2023-03-19T07:56:56;11.72;84.08
66740;DHT22;53653;52.188;8.602;2023-03-19T07:59:22;11.83;84.15
66740;DHT22;53653;52.188;8.602;2023-03-19T08:01:48;12.04;83.95
66740;DHT22;53653;52.188;8.602;2023-03-19T08:04:13;12.41;83.45
66740;DHT22;53653;52.188;8.602;2023-03-19T08:06:39;12.79;82.03
66740;DHT22;53653;52.188;8.602;2023-03-19T08:09:05;12.69;81.19
66740;DHT22;53653;52.188;8.602;2023-03-19T08:11:31;12.72;80.56
66740;DHT22;53653;52.188;8.602;2023-03-19T08:13:57;12.80;80.51
66740;DHT22;53653;52.188;8.602;2023-03-19T08:16:23;13.07;79.72
66740;DHT22;53653;52.188;8.602;2023-03-19T08:18:49;13.23;79.31
66740;DHT22;53653;52.188;8.602;2023-03-19T08:21:16;13.82;76.48
66740;DHT22;53653;52.188;8.602;2023-03-19T08:23:41;14.25;75.56
66740;DHT22;53653;52.188;8.602;2023-03-19T08:26:07;14.74;73.82
66740;DHT22;53653;52.188;8.602;2023-03-19T08:28:33;15.25;71.83
66740;DHT22;53653;52.188;8.602;2023-03-19T08:31:13;15.23;70.72
66740;DHT22;53653;52.188;8.602;2023-03-19T08:33:39;15.74;70.38
66740;DHT22;53653;52.188;8.602;2023-03-19T08:36:26;15.93;69.19
66740;DHT22;53653;52.188;8.602;2023-03-19T08:38:51;15.47;70.11
66740;DHT22;53653;52.188;8.602;2023-03-19T08:41:20;14.47;72.71
66740;DHT22;53653;52.188;8.602;2023-03-19T08:43:47;14.05;73.57
66740;DHT22;53653;52.188;8.602;2023-03-19T08:46:13;13.82;74.38
66740;DHT22;53653;52.188;8.602;2023-03-19T08:48:38;13.99;74.51
66740;DHT22;53653;52.188;8.602;2023-03-19T08:51:04;14.30;74.01
66740;DHT22;53653;52.188;8.602;2023-03-19T08:53:31;14.20;74.30
66740;DHT22;53653;52.188;8.602;2023-03-19T08:55:59;14.02;74.59
66740;DHT22;53653;52.188;8.602;2023-03-19T08:58:26;14.65;73.34
66740;DHT22;53653;52.188;8.602;2023-03-19T09:00:58;14.53;72.74
66740;DHT22;53653;52.188;8.602;2023-03-19T09:03:26;14.83;72.44
66740;DHT22;53653;52.188;8.602;2023-03-19T09:05:51;14.80;72.12
66740;DHT22;53653;52.188;8.602;2023-03-19T09:08:17;14.83;72.51
66740;DHT22;53653;52.188;8.602;2023-03-19T09:10:43;15.36;70.26
66740;DHT22;53653;52.188;8.602;2023-03-19T09:13:08;16.10;68.26
66740;DHT22;53653;52.188;8.602;2023-03-19T09:15:34;15.84;67.99
66740;DHT22;53653;52.188;8.602;2023-03-19T09:18:00;15.53;69.30
66740;DHT22;53653;52.188;8.602;2023-03-19T09:20:25;15.25;69.61
66740;DHT22;53653;52.188;8.602;2023-03-19T09:22:51;15.49;69.27
66740;DHT22;53653;52.188;8.602;2023-03-19T09:25:17;15.97;68.31
66740;DHT22;53653;52.188;8.602;2023-03-19T09:27:42;15.43;68.85
66740;DHT22;53653;52.188;8.602;2023-03-19T09:30:08;14.99;69.77
66740;DHT22;53653;52.188;8.602;2023-03-19T09:32:35;14.68;70.80
66740;DHT22;53653;52.188;8.602;2023-03-19T09:35:01;14.61;71.39
66740;DHT22;53653;52.188;8.602;2023-03-19T09:37:26;14.56;71.88
66740;DHT22;53653;52.188;8.602;2023-03-19T09:39:52;14.48;72.00
66740;DHT22;53653;52.188;8.602;2023-03-19T09:42:21;14.38;72.32
66740;DHT22;53653;52.188;8.602;2023-03-19T09:44:52;14.36;73.02
66740;DHT22;53653;52.188;8.602;2023-03-19T09:49:56;14.41;73.17
66740;DHT22;53653;52.188;8.602;2023-03-19T09:57:42;14.38;71.81
66740;DHT22;53653;52.188;8.602;2023-03-19T10:00:19;14.36;72.38
66740;DHT22;53653;52.188;8.602;2023-03-19T10:02:51;14.32;72.84
66740;DHT22;53653;52.188;8.602;2023-03-19T10:10:44;14.32;72.51
66740;DHT22;53653;52.188;8.602;2023-03-19T10:16:13;14.34;73.05
66740;DHT22;53653;52.188;8.602;2023-03-19T10:18:43;14.40;73.03
66740;DHT22;53653;52.188;8.602;2023-03-19T10:24:20;14.22;72.97
66740;DHT22;53653;52.188;8.602;2023-03-19T10:26:38;14.27;73.27
66740;DHT22;53653;52.188;8.602;2023-03-19T10:29:20;14.40;72.60
66740;DHT22;53653;52.188;8.602;2023-03-19T10:34:36;14.29;72.99
66740;DHT22;53653;52.188;8.602;2023-03-19T10:37:04;14.34;73.22
66740;DHT22;53653;52.188;8.602;2023-03-19T10:39:35;14.33;73.33
66740;DHT22;53653;52.188;8.602;2023-03-19T10:42:38;15.14;71.10
66740;DHT22;53653;52.188;8.602;2023-03-19T10:45:18;15.44;69.90
66740;DHT22;53653;52.188;8.602;2023-03-19T10:47:45;15.79;68.28
66740;DHT22;53653;52.188;8.602;2023-03-19T10:50:16;15.49;69.18
66740;DHT22;53653;52.188;8.602;2023-03-19T10:52:42;15.36;69.00
66740;DHT22;53653;52.188;8.602;2023-03-19T10:55:17;15.26;68.91
66740;DHT22;53653;52.188;8.602;2023-03-19T10:57:48;15.63;68.94
66740;DHT22;53653;52.188;8.602;2023-03-19T11:00:24;15.80;68.94
66740;DHT22;53653;52.188;8.602;2023-03-19T11:02:53;15.52;68.80
66740;DHT22;53653;52.188;8.602;2023-03-19T11:07:48;15.25;69.71
66740;DHT22;53653;52.188;8.602;2023-03-19T11:10:16;15.18;69.93
66740;DHT22;53653;52.188;8.602;2023-03-19T11:12:46;15.04;70.43
66740;DHT22;53653;52.188;8.602;2023-03-19T11:15:19;14.92;71.19
66740;DHT22;53653;52.188;8.602;2023-03-19T11:22:43;14.83;72.01
66740;DHT22;53653;52.188;8.602;2023-03-19T11:25:14;15.01;72.18
66740;DHT22;53653;52.188;8.602;2023-03-19T11:27:39;15.21;71.55
66740;DHT22;53653;52.188;8.602;2023-03-19T11:30:27;15.28;69.35
66740;DHT22;53653;52.188;8.602;2023-03-19T11:35:37;14.96;70.97
66740;DHT22;53653;52.188;8.602;2023-03-19T11:38:15;14.85;70.95
66740;DHT22;53653;52.188;8.602;2023-03-19T11:54:44;14.53;72.96
66740;DHT22;53653;52.188;8.602;2023-03-19T12:00:35;14.59;73.19
66740;DHT22;53653;52.188;8.602;2023-03-19T12:05:31;15.01;72.56
66740;DHT22;53653;52.188;8.602;2023-03-19T12:08:15;15.08;71.85
66740;DHT22;53653;52.188;8.602;2023-03-19T12:11:05;15.12;72.04
66740;DHT22;53653;52.188;8.602;2023-03-19T12:16:26;15.08;71.02
66740;DHT22;53653;52.188;8.602;2023-03-19T12:27:31;15.33;71.06
66740;DHT22;53653;52.188;8.602;2023-03-19T12:29:59;15.52;70.58
66740;DHT22;53653;52.188;8.602;2023-03-19T12:35:22;15.83;69.28
66740;DHT22;53653;52.188;8.602;2023-03-19T12:38:08;16.02;68.26
66740;DHT22;53653;52.188;8.602;2023-03-19T12:40:39;16.17;68.40
66740;DHT22;53653;52.188;8.602;2023-03-19T12:43:16;16.22;68.00
66740;DHT22;53653;52.188;8.602;2023-03-19T12:45:45;16.26;67.90
66740;DHT22;53653;52.188;8.602;2023-03-19T12:48:24;16.52;67.01
66740;DHT22;53653;52.188;8.602;2023-03-19T12:50:55;16.32;67.76
66740;DHT22;53653;52.188;8.602;2023-03-19T12:59:07;16.04;68.28
66740;DHT22;53653;52.188;8.602;2023-03-19T13:01:46;15.96;68.91
66740;DHT22;53653;52.188;8.602;2023-03-19T13:04:18;15.98;69.47
66740;DHT22;53653;52.188;8.602;2023-03-19T13:06:51;15.87;68.62
66740;DHT22;53653;52.188;8.602;2023-03-19T13:09:35;15.86;69.23
66740;DHT22;53653;52.188;8.602;2023-03-19T13:12:17;15.89;69.76
66740;DHT22;53653;52.188;8.602;2023-03-19T13:17:23;16.14;68.62
66740;DHT22;53653;52.188;8.602;2023-03-19T13:19:51;16.15;68.59
66740;DHT22;53653;52.188;8.602;2023-03-19T13:22:21;16.05;67.91
66740;DHT22;53653;52.188;8.602;2023-03-19T13:24:48;16.14;67.96
66740;DHT22;53653;52.188;8.602;2023-03-19T13:27:21;16.44;66.25
66740;DHT22;53653;52.188;8.602;2023-03-19T13:30:06;16.41;67.38
66740;DHT22;53653;52.188;8.602;2023-03-19T13:32:39;16.35;65.49
66740;DHT22;53653;52.188;8.602;2023-03-19T13:37:42;16.20;66.40
66740;DHT22;53653;52.188;8.602;2023-03-19T13:43:01;16.12;66.17
66740;DHT22;53653;52.188;8.602;2023-03-19T13:45:35;16.10;65.81
66740;DHT22;53653;52.188;8.602;2023-03-19T13:59:25;16.15;66.22
66740;DHT22;53653;52.188;8.602;2023-03-19T14:01:54;16.29;65.88
66740;DHT22;53653;52.188;8.602;2023-03-19T14:04:28;16.53;64.84
66740;DHT22;53653;52.188;8.602;2023-03-19T14:09:45;16.63;63.79
66740;DHT22;53653;52.188;8.602;2023-03-19T14:15:03;16.38;64.36
66740;DHT22;53653;52.188;8.602;2023-03-19T14:17:40;16.26;64.99
66740;DHT22;53653;52.188;8.602;2023-03-19T14:22:38;16.26;65.67
66740;DHT22;53653;52.188;8.602;2023-03-19T14:25:18;16.36;65.68
66740;DHT22;53653;52.188;8.602;2023-03-19T14:27:47;16.63;64.03
66740;DHT22;53653;52.188;8.602;2023-03-19T14:30:32;16.68;63.47
66740;DHT22;53653;52.188;8.602;2023-03-19T14:33:06;16.59;63.41
66740;DHT22;53653;52.188;8.602;2023-03-19T14:35:40;16.47;64.63
66740;DHT22;53653;52.188;8.602;2023-03-19T14:38:13;16.38;64.50
66740;DHT22;53653;52.188;8.602;2023-03-19T14:40:46;16.32;64.64
66740;DHT22;53653;52.188;8.602;2023-03-19T14:57:36;16.20;65.46
66740;DHT22;53653;52.188;8.602;2023-03-19T15:00:06;16.15;65.56
66740;DHT22;53653;52.188;8.602;2023-03-19T15:02:43;16.12;65.60
66740;DHT22;53653;52.188;8.602;2023-03-19T15:05:29;16.11;65.87
66740;DHT22;53653;52.188;8.602;2023-03-19T15:08:00;16.18;65.29
66740;DHT22;53653;52.188;8.602;2023-03-19T15:10:28;16.26;64.52
66740;DHT22;53653;52.188;8.602;2023-03-19T15:18:47;16.32;65.06
66740;DHT22;53653;52.188;8.602;2023-03-19T15:21:13;16.28;65.11
66740;DHT22;53653;52.188;8.602;2023-03-19T15:23:40;16.24;64.92
66740;DHT22;53653;52.188;8.602;2023-03-19T15:26:09;16.31;64.73
66740;DHT22;53653;52.188;8.602;2023-03-19T15:31:11;16.24;64.92
66740;DHT22;53653;52.188;8.602;2023-03-19T15:33:38;16.11;65.64
66740;DHT22;53653;52.188;8.602;2023-03-19T15:38:59;15.93;65.67
66740;DHT22;53653;52.188;8.602;2023-03-19T15:41:24;15.81;65.62
66740;DHT22;53653;52.188;8.602;2023-03-19T15:43:52;15.77;66.13
66740;DHT22;53653;52.188;8.602;2023-03-19T15:46:23;15.77;66.17
66740;DHT22;53653;52.188;8.602;2023-03-19T15:48:50;15.79;66.17
66740;DHT22;53653;52.188;8.602;2023-03-19T15:51:20;15.83;66.54
66740;DHT22;53653;52.188;8.602;2023-03-19T15:53:47;15.86;67.57
66740;DHT22;53653;52.188;8.602;2023-03-19T15:56:13;15.86;67.33
66740;DHT22;53653;52.188;8.602;2023-03-19T15:58:43;15.77;67.64
66740;DHT22;53653;52.188;8.602;2023-03-19T16:01:11;15.73;68.02
66740;DHT22;53653;52.188;8.602;2023-03-19T16:03:43;15.77;67.79
66740;DHT22;53653;52.188;8.602;2023-03-19T16:06:18;15.74;67.63
66740;DHT22;53653;52.188;8.602;2023-03-19T16:08:50;15.79;67.85
66740;DHT22;53653;52.188;8.602;2023-03-19T16:13:57;15.70;67.31
66740;DHT22;53653;52.188;8.602;2023-03-19T16:16:26;15.62;67.68
66740;DHT22;53653;52.188;8.602;2023-03-19T16:18:54;15.53;68.43
66740;DHT22;53653;52.188;8.602;2023-03-19T16:21:22;15.54;67.97
66740;DHT22;53653;52.188;8.602;2023-03-19T16:23:54;15.52;68.54
66740;DHT22;53653;52.188;8.602;2023-03-19T16:26:23;15.44;68.68
66740;DHT22;53653;52.188;8.602;2023-03-19T16:32:02;15.22;68.73
66740;DHT22;53653;52.188;8.602;2023-03-19T16:34:41;15.12;69.20
66740;DHT22;53653;52.188;8.602;2023-03-19T16:39:57;15.05;69.54
66740;DHT22;53653;52.188;8.602;2023-03-19T16:47:45;14.81;70.72
66740;DHT22;53653;52.188;8.602;2023-03-19T16:50:11;14.84;70.58
66740;DHT22;53653;52.188;8.602;2023-03-19T16:52:38;14.80;70.65
66740;DHT22;53653;52.188;8.602;2023-03-19T16:55:44;14.73;71.16
66740;DHT22;53653;52.188;8.602;2023-03-19T16:58:17;14.70;71.26
66740;DHT22;53653;52.188;8.602;2023-03-19T17:00:43;14.68;71.39
66740;DHT22;53653;52.188;8.602;2023-03-19T17:03:12;14.63;71.92
66740;DHT22;53653;52.188;8.602;2023-03-19T17:05:38;14.57;72.24
66740;DHT22;53653;52.188;8.602;2023-03-19T17:08:04;14.53;72.12
66740;DHT22;53653;52.188;8.602;2023-03-19T17:10:30;14.47;72.16
66740;DHT22;53653;52.188;8.602;2023-03-19T17:12:57;14.44;72.23
66740;DHT22;53653;52.188;8.602;2023-03-19T17:17:52;14.22;72.86
66740;DHT22;53653;52.188;8.602;2023-03-19T17:20:22;14.06;73.12
66740;DHT22;53653;52.188;8.602;2023-03-19T17:22:48;13.90;75.60
66740;DHT22;53653;52.188;8.602;2023-03-19T17:25:15;13.72;76.55
66740;DHT22;53653;52.188;8.602;2023-03-19T17:27:43;13.50;77.69
66740;DHT22;53653;52.188;8.602;2023-03-19T17:30:09;13.30;79.00
66740;DHT22;53653;52.188;8.602;2023-03-19T17:32:37;13.10;80.40
66740;DHT22;53653;52.188;8.602;2023-03-19T17:35:12;13.04;80.45
66740;DHT22;53653;52.188;8.602;2023-03-19T17:37:38;13.04;80.26
66740;DHT22;53653;52.188;8.602;2023-03-19T17:42:39;12.80;81.38
66740;DHT22;53653;52.188;8.602;2023-03-19T17:45:05;12.68;81.92
66740;DHT22;53653;52.188;8.602;2023-03-19T17:47:31;12.59;82.28
66740;DHT22;53653;52.188;8.602;2023-03-19T17:49:58;12.53;82.65
66740;DHT22;53653;52.188;8.602;2023-03-19T17:52:24;12.44;83.16
66740;DHT22;53653;52.188;8.602;2023-03-19T17:54:49;12.35;83.75
66740;DHT22;53653;52.188;8.602;2023-03-19T17:57:15;12.25;84.46
66740;DHT22;53653;52.188;8.602;2023-03-19T17:59:40;12.21;84.69
66740;DHT22;53653;52.188;8.602;2023-03-19T18:02:26;12.13;85.38
66740;DHT22;53653;52.188;8.602;2023-03-19T18:04:52;12.03;85.94
66740;DHT22;53653;52.188;8.602;2023-03-19T18:07:18;11.97;86.14
66740;DHT22;53653;52.188;8.602;2023-03-19T18:09:44;11.94;86.56
66740;DHT22;53653;52.188;8.602;2023-03-19T18:12:09;11.90;86.59
66740;DHT22;53653;52.188;8.602;2023-03-19T18:14:35;11.90;86.80
66740;DHT22;53653;52.188;8.602;2023-03-19T18:17:00;11.80;87.16
66740;DHT22;53653;52.188;8.602;2023-03-19T18:19:29;11.79;87.06